sensor_id;sensor_type;location;lat;lon;timestamp;temperature;humidity
73360;DHT22;63092;43.582;19.528;2022-12-07T00:01:22;8.20;99.90
73360;DHT22;63092;43.582;19.528;2022-12-07T00:03:49;8.20;99.90
73360;DHT22;63092;43.582;19.528;2022-12-07T00:06:17;8.10;99.90
73360;DHT22;63092;43.582;19.528;2022-12-07T00:08:43;8.10;99.90
73360;DHT22;63092;43.582;19.528;2022-12-07T00:11:15;8.10;99.90
73360;DHT22;63092;43.582;19.528;2022-12-07T00:13:42;8.10;99.90
73360;DHT22;63092;43.582;19.528;2022-12-07T00:16:10;8.10;99.90
73360;DHT22;63092;43.582;19.528;2022-12-07T00:18:36;8.10;99.90
73360;DHT22;63092;43.582;19.528;2022-12-07T00:21:03;8.10;99.90
73360;DHT22;63092;43.582;19.528;2022-12-07T00:23:30;8.00;99.90
73360;DHT22;63092;43.582;19.528;2022-12-07T00:25:56;8.10;99.90
73360;DHT22;63092;43.582;19.528;2022-12-07T00:28:21;8.10;99.90
73360;DHT22;63092;43.582;19.528;2022-12-07T00:30:47;8.10;99.90
73360;DHT22;63092;43.582;19.528;2022-12-07T00:33:13;8.20;99.90
73360;DHT22;63092;43.582;19.528;2022-12-07T00:35:38;8.20;99.90
73360;DHT22;63092;43.582;19.528;2022-12-07T00:38:04;8.20;99.90
73360;DHT22;63092;43.582;19.528;2022-12-07T00:40:30;8.30;99.90
73360;DHT22;63092;43.582;19.528;2022-12-07T00:42:55;8.30;99.90
73360;DHT22;63092;43.582;19.528;2022-12-07T00:45:21;8.30;99.90
73360;DHT22;63092;43.582;19.528;2022-12-07T00:47:47;8.30;99.90
73360;DHT22;63092;43.582;19.528;2022-12-07T00:50:13;8.30;99.90
73360;DHT22;63092;43.582;19.528;2022-12-07T00:52:41;8.20;99.90
73360;DHT22;63092;43.582;19.528;2022-12-07T00:55:07;8.20;99.90
73360;DHT22;63092;43.582;19.528;2022-12-07T00:57:33;8.20;99.90
73360;DHT22;63092;43.582;19.528;2022-12-07T00:59:58;8.20;99.90
73360;DHT22;63092;43.582;19.528;2022-12-07T01:02:25;8.20;99.90
73360;DHT22;63092;43.582;19.528;2022-12-07T01:04:51;8.20;99.90
73360;DHT22;63092;43.582;19.528;2022-12-07T01:07:17;8.20;99.90
73360;DHT22;63092;43.582;19.528;2022-12-07T01:09:43;8.20;99.90
73360;DHT22;63092;43.582;19.528;2022-12-07T01:12:08;8.30;99.90
73360;DHT22;63092;43.582;19.528;2022-12-07T01:14:34;8.30;99.90
73360;DHT22;63092;43.582;19.528;2022-12-07T01:17:00;8.30;99.90
73360;DHT22;63092;43.582;19.528;2022-12-07T01:19:25;8.30;99.90
73360;DHT22;63092;43.582;19.528;2022-12-07T01:21:51;8.20;99.90
73360;DHT22;63092;43.582;19.528;2022-12-07T01:24:17;8.30;99.90
73360;DHT22;63092;43.582;19.528;2022-12-07T01:26:42;8.30;99.90
73360;DHT22;63092;43.582;19.528;2022-12-07T01:29:08;8.30;99.90
73360;DHT22;63092;43.582;19.528;2022-12-07T01:31:34;8.20;99.90
73360;DHT22;63092;43.582;19.528;2022-12-07T01:34:00;8.20;99.90
73360;DHT22;63092;43.582;19.528;2022-12-07T01:36:31;8.20;99.90
73360;DHT22;63092;43.582;19.528;2022-12-07T01:39:00;8.20;99.90
73360;DHT22;63092;43.582;19.528;2022-12-07T01:41:29;8.20;99.90
73360;DHT22;63092;43.582;19.528;2022-12-07T01:44:25;8.20;99.90
73360;DHT22;63092;43.582;19.528;2022-12-07T01:46:59;8.30;99.90
73360;DHT22;63092;43.582;19.528;2022-12-07T01:49:45;8.30;99.90
73360;DHT22;63092;43.582;19.528;2022-12-07T01:52:20;8.30;99.90
73360;DHT22;63092;43.582;19.528;2022-12-07T01:54:47;8.30;99.90
73360;DHT22;63092;43.582;19.528;2022-12-07T01:57:16;8.20;99.90
73360;DHT22;63092;43.582;19.528;2022-12-07T01:59:45;8.20;99.90
73360;DHT22;63092;43.582;19.528;2022-12-07T02:02:21;8.30;99.90
73360;DHT22;63092;43.582;19.528;2022-12-07T02:04:49;8.20;99.90
73360;DHT22;63092;43.582;19.528;2022-12-07T02:07:16;8.30;99.90
73360;DHT22;63092;43.582;19.528;2022-12-07T02:09:42;8.30;99.90
73360;DHT22;63092;43.582;19.528;2022-12-07T02:12:08;8.30;99.90
73360;DHT22;63092;43.582;19.528;2022-12-07T02:14:34;8.30;99.90
73360;DHT22;63092;43.582;19.528;2022-12-07T02:22:52;8.30;99.90
73360;DHT22;63092;43.582;19.528;2022-12-07T02:24:56;8.30;99.90
73360;DHT22;63092;43.582;19.528;2022-12-07T02:30:04;8.30;99.90
73360;DHT22;63092;43.582;19.528;2022-12-07T02:38:03;8.40;99.90
73360;DHT22;63092;43.582;19.528;2022-12-07T02:40:40;8.40;99.90
73360;DHT22;63092;43.582;19.528;2022-12-07T02:43:26;8.40;99.90
73360;DHT22;63092;43.582;19.528;2022-12-07T02:45:54;8.30;99.90
73360;DHT22;63092;43.582;19.528;2022-12-07T02:48:23;8.30;99.90
73360;DHT22;63092;43.582;19.528;2022-12-07T02:50:54;8.40;99.90
73360;DHT22;63092;43.582;19.528;2022-12-07T02:53:33;8.40;99.90
73360;DHT22;63092;43.582;19.528;2022-12-07T03:16:42;8.20;99.90
73360;DHT22;63092;43.582;19.528;2022-12-07T03:18:43;8.30;99.90
73360;DHT22;63092;43.582;19.528;2022-12-07T03:21:15;8.20;99.90
73360;DHT22;63092;43.582;19.528;2022-12-07T03:23:45;8.10;99.90
73360;DHT22;63092;43.582;19.528;2022-12-07T03:26:12;8.10;99.90
73360;DHT22;63092;43.582;19.528;2022-12-07T03:28:51;8.20;99.90
73360;DHT22;63092;43.582;19.528;2022-12-07T03:31:22;8.20;99.90
73360;DHT22;63092;43.582;19.528;2022-12-07T03:36:35;8.20;99.90
73360;DHT22;63092;43.582;19.528;2022-12-07T03:41:33;8.30;99.90
73360;DHT22;63092;43.582;19.528;2022-12-07T03:44:00;8.30;99.90
73360;DHT22;63092;43.582;19.528;2022-12-07T03:53:08;8.30;99.90
73360;DHT22;63092;43.582;19.528;2022-12-07T03:57:51;8.40;99.90
73360;DHT22;63092;43.582;19.528;2022-12-07T04:00:19;8.40;99.90
73360;DHT22;63092;43.582;19.528;2022-12-07T04:02:45;8.40;99.90
73360;DHT22;63092;43.582;19.528;2022-12-07T04:05:11;8.40;99.90
73360;DHT22;63092;43.582;19.528;2022-12-07T04:07:37;8.50;99.90
73360;DHT22;63092;43.582;19.528;2022-12-07T04:10:03;8.50;99.90
73360;DHT22;63092;43.582;19.528;2022-12-07T04:12:29;8.50;99.90
73360;DHT22;63092;43.582;19.528;2022-12-07T04:14:55;8.50;99.90
73360;DHT22;63092;43.582;19.528;2022-12-07T04:17:21;8.40;99.90
73360;DHT22;63092;43.582;19.528;2022-12-07T04:19:46;8.40;99.90
73360;DHT22;63092;43.582;19.528;2022-12-07T04:22:12;8.50;99.90
73360;DHT22;63092;43.582;19.528;2022-12-07T04:24:38;8.50;99.90
73360;DHT22;63092;43.582;19.528;2022-12-07T04:27:04;8.50;99.90
73360;DHT22;63092;43.582;19.528;2022-12-07T04:29:30;8.60;99.90
73360;DHT22;63092;43.582;19.528;2022-12-07T04:31:55;8.50;99.90
73360;DHT22;63092;43.582;19.528;2022-12-07T04:34:21;8.50;99.90
73360;DHT22;63092;43.582;19.528;2022-12-07T04:36:47;8.50;99.90
73360;DHT22;63092;43.582;19.528;2022-12-07T04:39:22;8.50;99.90
73360;DHT22;63092;43.582;19.528;2022-12-07T04:41:48;8.50;99.90
73360;DHT22;63092;43.582;19.528;2022-12-07T04:44:15;8.60;99.90
73360;DHT22;63092;43.582;19.528;2022-12-07T04:46:41;8.60;99.90
73360;DHT22;63092;43.582;19.528;2022-12-07T04:49:07;8.50;99.90
73360;DHT22;63092;43.582;19.528;2022-12-07T04:51:33;8.60;99.90
73360;DHT22;63092;43.582;19.528;2022-12-07T04:53:59;8.50;99.90
73360;DHT22;63092;43.582;19.528;2022-12-07T04:56:25;8.60;99.90
73360;DHT22;63092;43.582;19.528;2022-12-07T04:58:52;8.60;99.90
73360;DHT22;63092;43.582;19.528;2022-12-07T05:01:18;8.60;99.90
73360;DHT22;63092;43.582;19.528;2022-12-07T05:03:45;8.60;99.90
73360;DHT22;63092;43.582;19.528;2022-12-07T05:06:11;8.60;99.90
73360;DHT22;63092;43.582;19.528;2022-12-07T05:08:37;8.60;99.90
73360;DHT22;63092;43.582;19.528;2022-12-07T05:11:04;8.60;99.90
73360;DHT22;63092;43.582;19.528;2022-12-07T05:13:30;8.60;99.90
73360;DHT22;63092;43.582;19.528;2022-12-07T05:15:56;8.60;99.90
73360;DHT22;63092;43.582;19.528;2022-12-07T05:18:22;8.60;99.90
73360;DHT22;63092;43.582;19.528;2022-12-07T05:20:48;8.60;99.90
73360;DHT22;63092;43.582;19.528;2022-12-07T05:23:14;8.60;99.90
73360;DHT22;63092;43.582;19.528;2022-12-07T05:25:39;8.50;99.90
73360;DHT22;63092;43.582;19.528;2022-12-07T05:28:06;8.60;99.90
73360;DHT22;63092;43.582;19.528;2022-12-07T05:30:32;8.60;99.90
73360;DHT22;63092;43.582;19.528;2022-12-07T05:32:57;8.60;99.90
73360;DHT22;63092;43.582;19.528;2022-12-07T05:35:23;8.60;99.90
73360;DHT22;63092;43.582;19.528;2022-12-07T05:37:49;8.60;99.90
73360;DHT22;63092;43.582;19.528;2022-12-07T05:40:16;8.60;99.90
73360;DHT22;63092;43.582;19.528;2022-12-07T05:42:42;8.60;99.90
73360;DHT22;63092;43.582;19.528;2022-12-07T05:45:09;8.60;99.90
73360;DHT22;63092;43.582;19.528;2022-12-07T05:47:35;8.60;99.90
73360;DHT22;63092;43.582;19.528;2022-12-07T05:50:02;8.60;99.90
73360;DHT22;63092;43.582;19.528;2022-12-07T05:52:28;8.60;99.90
73360;DHT22;63092;43.582;19.528;2022-12-07T05:54:54;8.60;99.90
73360;DHT22;63092;43.582;19.528;2022-12-07T05:57:19;8.60;99.90
73360;DHT22;63092;43.582;19.528;2022-12-07T05:59:45;8.60;99.90
73360;DHT22;63092;43.582;19.528;2022-12-07T06:02:13;8.70;99.90
73360;DHT22;63092;43.582;19.528;2022-12-07T06:04:44;8.60;99.90
73360;DHT22;63092;43.582;19.528;2022-12-07T06:07:12;8.60;99.90
73360;DHT22;63092;43.582;19.528;2022-12-07T06:09:38;8.60;99.90
73360;DHT22;63092;43.582;19.528;2022-12-07T06:12:05;8.60;99.90
73360;DHT22;63092;43.582;19.528;2022-12-07T06:14:49;8.60;99.90
73360;DHT22;63092;43.582;19.528;2022-12-07T06:17:15;8.70;99.90
73360;DHT22;63092;43.582;19.528;2022-12-07T06:19:41;8.70;99.90
73360;DHT22;63092;43.582;19.528;2022-12-07T06:22:07;8.70;99.90
73360;DHT22;63092;43.582;19.528;2022-12-07T06:24:34;8.60;99.90
73360;DHT22;63092;43.582;19.528;2022-12-07T06:27:00;8.70;99.90
73360;DHT22;63092;43.582;19.528;2022-12-07T06:29:26;8.70;99.90
73360;DHT22;63092;43.582;19.528;2022-12-07T06:31:52;8.70;99.90
73360;DHT22;63092;43.582;19.528;2022-12-07T06:34:21;8.70;99.90
73360;DHT22;63092;43.582;19.528;2022-12-07T06:36:48;8.70;99.90
73360;DHT22;63092;43.582;19.528;2022-12-07T06:39:18;8.70;99.90
73360;DHT22;63092;43.582;19.528;2022-12-07T06:41:44;8.70;99.90
73360;DHT22;63092;43.582;19.528;2022-12-07T06:44:09;8.70;99.90
73360;DHT22;63092;43.582;19.528;2022-12-07T06:46:35;8.60;99.90
73360;DHT22;63092;43.582;19.528;2022-12-07T06:49:02;8.50;99.90
73360;DHT22;63092;43.582;19.528;2022-12-07T06:51:27;8.40;99.90
73360;DHT22;63092;43.582;19.528;2022-12-07T06:53:53;8.20;99.90
73360;DHT22;63092;43.582;19.528;2022-12-07T06:56:19;8.20;99.90
73360;DHT22;63092;43.582;19.528;2022-12-07T06:58:45;8.20;99.90
73360;DHT22;63092;43.582;19.528;2022-12-07T07:01:13;8.30;99.90
73360;DHT22;63092;43.582;19.528;2022-12-07T07:03:39;8.30;99.90
73360;DHT22;63092;43.582;19.528;2022-12-07T07:06:06;8.20;99.90
73360;DHT22;63092;43.582;19.528;2022-12-07T07:08:33;8.20;99.90
73360;DHT22;63092;43.582;19.528;2022-12-07T07:11:02;8.30;99.90
73360;DHT22;63092;43.582;19.528;2022-12-07T07:13:28;8.30;99.90
73360;DHT22;63092;43.582;19.528;2022-12-07T07:15:54;8.30;99.90
73360;DHT22;63092;43.582;19.528;2022-12-07T07:18:20;8.20;99.90
73360;DHT22;63092;43.582;19.528;2022-12-07T07:20:46;8.20;99.90
73360;DHT22;63092;43.582;19.528;2022-12-07T07:23:11;8.20;99.90
73360;DHT22;63092;43.582;19.528;2022-12-07T07:25:37;8.20;99.90
73360;DHT22;63092;43.582;19.528;2022-12-07T07:28:03;8.20;99.90
73360;DHT22;63092;43.582;19.528;2022-12-07T07:30:29;8.20;99.90
73360;DHT22;63092;43.582;19.528;2022-12-07T07:33:00;8.30;99.90
73360;DHT22;63092;43.582;19.528;2022-12-07T07:35:27;8.40;99.90
73360;DHT22;63092;43.582;19.528;2022-12-07T07:37:53;8.40;99.90
73360;DHT22;63092;43.582;19.528;2022-12-07T07:40:19;8.50;99.90
73360;DHT22;63092;43.582;19.528;2022-12-07T07:42:50;8.50;99.90
73360;DHT22;63092;43.582;19.528;2022-12-07T07:45:17;8.60;99.90
73360;DHT22;63092;43.582;19.528;2022-12-07T07:47:42;8.50;99.90
73360;DHT22;63092;43.582;19.528;2022-12-07T07:50:09;8.60;99.90
73360;DHT22;63092;43.582;19.528;2022-12-07T07:52:34;8.70;99.90
73360;DHT22;63092;43.582;19.528;2022-12-07T07:55:00;8.80;99.90
73360;DHT22;63092;43.582;19.528;2022-12-07T07:57:26;8.80;99.90
73360;DHT22;63092;43.582;19.528;2022-12-07T07:59:52;8.80;99.90
73360;DHT22;63092;43.582;19.528;2022-12-07T08:02:21;8.80;99.90
73360;DHT22;63092;43.582;19.528;2022-12-07T08:04:47;8.90;99.90
73360;DHT22;63092;43.582;19.528;2022-12-07T08:07:14;8.90;99.90
73360;DHT22;63092;43.582;19.528;2022-12-07T08:09:40;8.80;99.90
73360;DHT22;63092;43.582;19.528;2022-12-07T08:12:06;8.90;99.90
73360;DHT22;63092;43.582;19.528;2022-12-07T08:14:32;8.90;99.90
73360;DHT22;63092;43.582;19.528;2022-12-07T08:16:58;8.90;99.90
73360;DHT22;63092;43.582;19.528;2022-12-07T08:19:24;9.00;99.90
73360;DHT22;63092;43.582;19.528;2022-12-07T08:21:50;8.90;99.90
73360;DHT22;63092;43.582;19.528;2022-12-07T08:24:16;9.00;99.90
73360;DHT22;63092;43.582;19.528;2022-12-07T08:26:42;9.00;99.90
73360;DHT22;63092;43.582;19.528;2022-12-07T08:29:08;8.90;99.90
73360;DHT22;63092;43.582;19.528;2022-12-07T08:31:33;8.80;99.90
73360;DHT22;63092;43.582;19.528;2022-12-07T08:33:59;8.70;99.90
73360;DHT22;63092;43.582;19.528;2022-12-07T08:36:25;8.70;99.90
73360;DHT22;63092;43.582;19.528;2022-12-07T08:38:51;8.80;99.90
73360;DHT22;63092;43.582;19.528;2022-12-07T08:41:17;8.80;99.90
73360;DHT22;63092;43.582;19.528;2022-12-07T08:43:43;8.90;99.90
73360;DHT22;63092;43.582;19.528;2022-12-07T08:46:20;9.00;99.90
73360;DHT22;63092;43.582;19.528;2022-12-07T08:48:52;9.10;99.90
73360;DHT22;63092;43.582;19.528;2022-12-07T08:51:19;9.00;99.90
73360;DHT22;63092;43.582;19.528;2022-12-07T08:53:46;9.10;99.90
73360;DHT22;63092;43.582;19.528;2022-12-07T08:56:13;9.20;99.90
73360;DHT22;63092;43.582;19.528;2022-12-07T08:58:39;9.20;99.90
73360;DHT22;63092;43.582;19.528;2022-12-07T09:01:05;9.20;99.90
73360;DHT22;63092;43.582;19.528;2022-12-07T09:03:31;9.20;99.90
73360;DHT22;63092;43.582;19.528;2022-12-07T09:05:57;9.30;99.90
73360;DHT22;63092;43.582;19.528;2022-12-07T09:08:28;9.30;99.90
73360;DHT22;63092;43.582;19.528;2022-12-07T09:10:55;9.30;99.90
73360;DHT22;63092;43.582;19.528;2022-12-07T09:13:20;9.40;99.90
73360;DHT22;63092;43.582;19.528;2022-12-07T09:15:46;9.20;99.90
73360;DHT22;63092;43.582;19.528;2022-12-07T09:18:12;9.30;99.90
73360;DHT22;63092;43.582;19.528;2022-12-07T09:20:38;9.40;99.90
73360;DHT22;63092;43.582;19.528;2022-12-07T09:23:06;9.40;99.90
73360;DHT22;63092;43.582;19.528;2022-12-07T09:25:33;9.20;99.90
73360;DHT22;63092;43.582;19.528;2022-12-07T09:27:59;9.30;99.90
73360;DHT22;63092;43.582;19.528;2022-12-07T09:30:26;9.50;99.90
73360;DHT22;63092;43.582;19.528;2022-12-07T09:32:56;9.30;99.90
73360;DHT22;63092;43.582;19.528;2022-12-07T09:35:22;9.20;99.90
73360;DHT22;63092;43.582;19.528;2022-12-07T09:37:48;9.30;99.90
73360;DHT22;63092;43.582;19.528;2022-12-07T09:40:16;9.20;99.90
73360;DHT22;63092;43.582;19.528;2022-12-07T09:42:44;9.30;99.90
73360;DHT22;63092;43.582;19.528;2022-12-07T09:45:39;9.30;99.90
73360;DHT22;63092;43.582;19.528;2022-12-07T09:48:08;9.40;99.90
73360;DHT22;63092;43.582;19.528;2022-12-07T09:50:40;9.50;99.90
73360;DHT22;63092;43.582;19.528;2022-12-07T09:53:15;9.50;99.90
73360;DHT22;63092;43.582;19.528;2022-12-07T09:55:44;9.70;99.90
73360;DHT22;63092;43.582;19.528;2022-12-07T09:58:20;9.60;99.90
73360;DHT22;63092;43.582;19.528;2022-12-07T10:00:46;9.70;99.90
73360;DHT22;63092;43.582;19.528;2022-12-07T10:03:12;9.70;99.90
73360;DHT22;63092;43.582;19.528;2022-12-07T10:05:43;9.70;99.90
73360;DHT22;63092;43.582;19.528;2022-12-07T10:08:14;9.70;99.90
73360;DHT22;63092;43.582;19.528;2022-12-07T10:10:43;9.70;99.90
73360;DHT22;63092;43.582;19.528;2022-12-07T10:13:14;9.80;99.90
73360;DHT22;63092;43.582;19.528;2022-12-07T10:15:55;9.90;99.90
73360;DHT22;63092;43.582;19.528;2022-12-07T10:20:48;9.90;99.90
73360;DHT22;63092;43.582;19.528;2022-12-07T10:23:16;10.10;99.90
73360;DHT22;63092;43.582;19.528;2022-12-07T10:25:43;10.30;99.90
73360;DHT22;63092;43.582;19.528;2022-12-07T10:28:16;10.40;99.90
73360;DHT22;63092;43.582;19.528;2022-12-07T10:31:01;10.50;99.90
73360;DHT22;63092;43.582;19.528;2022-12-07T10:33:36;10.40;99.90
73360;DHT22;63092;43.582;19.528;2022-12-07T10:36:22;10.30;99.90
73360;DHT22;63092;43.582;19.528;2022-12-07T10:38:58;10.20;99.90
73360;DHT22;63092;43.582;19.528;2022-12-07T10:41:25;10.20;99.90
73360;DHT22;63092;43.582;19.528;2022-12-07T10:43:56;10.30;99.90
73360;DHT22;63092;43.582;19.528;2022-12-07T10:55:24;10.00;99.90
73360;DHT22;63092;43.582;19.528;2022-12-07T10:58:15;10.10;99.90
73360;DHT22;63092;43.582;19.528;2022-12-07T11:00:49;10.20;99.90
73360;DHT22;63092;43.582;19.528;2022-12-07T11:06:29;10.20;99.90
73360;DHT22;63092;43.582;19.528;2022-12-07T11:09:35;10.10;99.90
73360;DHT22;63092;43.582;19.528;2022-12-07T11:20:51;9.80;99.90
73360;DHT22;63092;43.582;19.528;2022-12-07T11:25:53;9.70;99.90
73360;DHT22;63092;43.582;19.528;2022-12-07T11:34:37;9.70;99.90
73360;DHT22;63092;43.582;19.528;2022-12-07T11:36:54;9.70;99.90
73360;DHT22;63092;43.582;19.528;2022-12-07T11:41:54;9.90;99.90
73360;DHT22;63092;43.582;19.528;2022-12-07T11:44:39;10.00;99.90
73360;DHT22;63092;43.582;19.528;2022-12-07T11:47:17;10.00;99.90
73360;DHT22;63092;43.582;19.528;2022-12-07T11:49:54;10.00;99.90
73360;DHT22;63092;43.582;19.528;2022-12-07T11:55:32;10.40;99.90
73360;DHT22;63092;43.582;19.528;2022-12-07T12:03:42;10.30;99.90
73360;DHT22;63092;43.582;19.528;2022-12-07T12:06:09;10.20;99.90
73360;DHT22;63092;43.582;19.528;2022-12-07T12:08:40;10.10;99.90
73360;DHT22;63092;43.582;19.528;2022-12-07T12:22:39;10.50;99.90
73360;DHT22;63092;43.582;19.528;2022-12-07T12:27:46;10.40;99.90
73360;DHT22;63092;43.582;19.528;2022-12-07T12:33:27;10.50;99.90
73360;DHT22;63092;43.582;19.528;2022-12-07T12:39:09;10.50;99.90
73360;DHT22;63092;43.582;19.528;2022-12-07T12:46:57;10.60;99.90
73360;DHT22;63092;43.582;19.528;2022-12-07T12:57:30;10.40;99.90
73360;DHT22;63092;43.582;19.528;2022-12-07T12:59:57;10.50;99.90
73360;DHT22;63092;43.582;19.528;2022-12-07T13:02:29;10.40;99.90
73360;DHT22;63092;43.582;19.528;2022-12-07T13:05:22;10.30;99.90
73360;DHT22;63092;43.582;19.528;2022-12-07T13:08:03;10.40;99.90
73360;DHT22;63092;43.582;19.528;2022-12-07T13:10:40;10.40;99.90
73360;DHT22;63092;43.582;19.528;2022-12-07T13:20:58;10.30;99.90
73360;DHT22;63092;43.582;19.528;2022-12-07T13:28:41;10.20;99.90
73360;DHT22;63092;43.582;19.528;2022-12-07T13:31:30;10.10;99.90
73360;DHT22;63092;43.582;19.528;2022-12-07T13:33:57;10.10;99.90
73360;DHT22;63092;43.582;19.528;2022-12-07T13:36:25;10.00;99.90
73360;DHT22;63092;43.582;19.528;2022-12-07T13:38:56;10.00;99.90
73360;DHT22;63092;43.582;19.528;2022-12-07T13:41:27;10.00;99.90
73360;DHT22;63092;43.582;19.528;2022-12-07T13:44:01;10.00;99.90
73360;DHT22;63092;43.582;19.528;2022-12-07T13:46:40;10.10;99.90
73360;DHT22;63092;43.582;19.528;2022-12-07T13:49:20;10.00;99.90
73360;DHT22;63092;43.582;19.528;2022-12-07T13:51:47;10.00;99.90
73360;DHT22;63092;43.582;19.528;2022-12-07T13:54:14;10.00;99.90
73360;DHT22;63092;43.582;19.528;2022-12-07T13:56:40;10.00;99.90
73360;DHT22;63092;43.582;19.528;2022-12-07T13:59:16;10.00;99.90
73360;DHT22;63092;43.582;19.528;2022-12-07T14:01:43;10.00;99.90
73360;DHT22;63092;43.582;19.528;2022-12-07T14:06:53;10.10;99.90
73360;DHT22;63092;43.582;19.528;2022-12-07T14:09:26;10.00;99.90
73360;DHT22;63092;43.582;19.528;2022-12-07T14:11:55;10.10;99.90
73360;DHT22;63092;43.582;19.528;2022-12-07T14:14:25;10.00;99.90
73360;DHT22;63092;43.582;19.528;2022-12-07T14:17:17;10.00;99.90
73360;DHT22;63092;43.582;19.528;2022-12-07T14:22:35;10.00;99.90
73360;DHT22;63092;43.582;19.528;2022-12-07T14:27:37;10.00;99.90
73360;DHT22;63092;43.582;19.528;2022-12-07T14:30:05;10.00;99.90
73360;DHT22;63092;43.582;19.528;2022-12-07T14:32:34;9.90;99.90
73360;DHT22;63092;43.582;19.528;2022-12-07T14:35:10;9.90;99.90
73360;DHT22;63092;43.582;19.528;2022-12-07T14:37:37;9.80;99.90
73360;DHT22;63092;43.582;19.528;2022-12-07T14:40:04;9.80;99.90
73360;DHT22;63092;43.582;19.528;2022-12-07T14:42:30;9.80;99.90
73360;DHT22;63092;43.582;19.528;2022-12-07T14:44:57;9.80;99.90
73360;DHT22;63092;43.582;19.528;2022-12-07T14:47:23;9.80;99.90
73360;DHT22;63092;43.582;19.528;2022-12-07T14:49:49;9.80;99.90
73360;DHT22;63092;43.582;19.528;2022-12-07T14:52:35;9.80;99.90
73360;DHT22;63092;43.582;19.528;2022-12-07T14:55:01;9.90;99.90
73360;DHT22;63092;43.582;19.528;2022-12-07T14:57:27;9.90;99.90
73360;DHT22;63092;43.582;19.528;2022-12-07T14:59:52;9.90;99.90
73360;DHT22;63092;43.582;19.528;2022-12-07T15:02:18;10.00;99.90
73360;DHT22;63092;43.582;19.528;2022-12-07T15:04:44;10.00;99.90
73360;DHT22;63092;43.582;19.528;2022-12-07T15:07:17;10.00;99.90
73360;DHT22;63092;43.582;19.528;2022-12-07T15:09:43;10.00;99.90
73360;DHT22;63092;43.582;19.528;2022-12-07T15:12:09;10.10;99.90
73360;DHT22;63092;43.582;19.528;2022-12-07T15:14:35;10.10;99.90
73360;DHT22;63092;43.582;19.528;2022-12-07T15:17:01;10.10;99.90
73360;DHT22;63092;43.582;19.528;2022-12-07T15:19:26;10.10;99.90
73360;DHT22;63092;43.582;19.528;2022-12-07T15:21:53;10.20;99.90
73360;DHT22;63092;43.582;19.528;2022-12-07T15:24:19;10.20;99.90
73360;DHT22;63092;43.582;19.528;2022-12-07T15:26:45;10.30;99.90
73360;DHT22;63092;43.582;19.528;2022-12-07T15:29:11;10.30;99.90
73360;DHT22;63092;43.582;19.528;2022-12-07T15:31:38;10.30;99.90
73360;DHT22;63092;43.582;19.528;2022-12-07T15:34:04;10.30;99.90
73360;DHT22;63092;43.582;19.528;2022-12-07T15:36:31;10.30;99.90
73360;DHT22;63092;43.582;19.528;2022-12-07T15:38:57;10.30;99.90
73360;DHT22;63092;43.582;19.528;2022-12-07T15:41:23;10.20;99.90
73360;DHT22;63092;43.582;19.528;2022-12-07T15:43:49;10.20;99.90
73360;DHT22;63092;43.582;19.528;2022-12-07T15:46:36;10.10;99.90
73360;DHT22;63092;43.582;19.528;2022-12-07T15:49:03;10.00;99.90
73360;DHT22;63092;43.582;19.528;2022-12-07T15:51:29;10.00;99.90
73360;DHT22;63092;43.582;19.528;2022-12-07T15:53:54;10.00;99.90
73360;DHT22;63092;43.582;19.528;2022-12-07T15:56:20;10.00;99.90
73360;DHT22;63092;43.582;19.528;2022-12-07T15:58:46;10.10;99.90
73360;DHT22;63092;43.582;19.528;2022-12-07T16:01:13;10.10;99.90
73360;DHT22;63092;43.582;19.528;2022-12-07T16:03:39;10.10;99.90
73360;DHT22;63092;43.582;19.528;2022-12-07T16:06:05;10.10;99.90
73360;DHT22;63092;43.582;19.528;2022-12-07T16:08:31;10.20;99.90
73360;DHT22;63092;43.582;19.528;2022-12-07T16:10:56;10.10;99.90
73360;DHT22;63092;43.582;19.528;2022-12-07T16:13:22;10.20;99.90
73360;DHT22;63092;43.582;19.528;2022-12-07T16:15:48;10.20;99.90
73360;DHT22;63092;43.582;19.528;2022-12-07T16:18:14;10.30;99.90
73360;DHT22;63092;43.582;19.528;2022-12-07T16:20:40;10.20;99.90
73360;DHT22;63092;43.582;19.528;2022-12-07T16:23:06;10.20;99.90
73360;DHT22;63092;43.582;19.528;2022-12-07T16:25:32;10.10;99.90
73360;DHT22;63092;43.582;19.528;2022-12-07T16:27:58;10.10;99.90
73360;DHT22;63092;43.582;19.528;2022-12-07T16:30:24;10.10;99.90
73360;DHT22;63092;43.582;19.528;2022-12-07T16:32:51;10.10;99.90
73360;DHT22;63092;43.582;19.528;2022-12-07T16:35:17;10.20;99.90
73360;DHT22;63092;43.582;19.528;2022-12-07T16:37:43;10.20;99.90
73360;DHT22;63092;43.582;19.528;2022-12-07T16:40:09;10.20;99.90
73360;DHT22;63092;43.582;19.528;2022-12-07T16:42:35;10.10;99.90
73360;DHT22;63092;43.582;19.528;2022-12-07T16:45:02;10.10;99.90
73360;DHT22;63092;43.582;19.528;2022-12-07T16:47:28;10.10;99.90
73360;DHT22;63092;43.582;19.528;2022-12-07T16:49:54;10.10;99.90
73360;DHT22;63092;43.582;19.528;2022-12-07T16:52:20;10.00;99.90
73360;DHT22;63092;43.582;19.528;2022-12-07T16:54:48;10.00;99.90
73360;DHT22;63092;43.582;19.528;2022-12-07T16:57:14;9.90;99.90
73360;DHT22;63092;43.582;19.528;2022-12-07T16:59:39;9.80;99.90
73360;DHT22;63092;43.582;19.528;2022-12-07T17:02:05;9.80;99.90
73360;DHT22;63092;43.582;19.528;2022-12-07T17:04:32;9.80;99.90
73360;DHT22;63092;43.582;19.528;2022-12-07T17:06:58;9.80;99.90
73360;DHT22;63092;43.582;19.528;2022-12-07T17:09:24;9.70;99.90
73360;DHT22;63092;43.582;19.528;2022-12-07T17:11:50;9.80;99.90
73360;DHT22;63092;43.582;19.528;2022-12-07T17:14:16;9.80;99.90
73360;DHT22;63092;43.582;19.528;2022-12-07T17:17:01;9.80;99.90
73360;DHT22;63092;43.582;19.528;2022-12-07T17:19:27;9.80;99.90
73360;DHT22;63092;43.582;19.528;2022-12-07T17:21:52;9.80;99.90
73360;DHT22;63092;43.582;19.528;2022-12-07T17:24:18;9.90;99.90
73360;DHT22;63092;43.582;19.528;2022-12-07T17:26:45;9.90;99.90
73360;DHT22;63092;43.582;19.528;2022-12-07T17:29:13;9.90;99.90
73360;DHT22;63092;43.582;19.528;2022-12-07T17:31:39;10.00;99.90
73360;DHT22;63092;43.582;19.528;2022-12-07T17:34:10;10.00;99.90
73360;DHT22;63092;43.582;19.528;2022-12-07T17:36:36;9.90;99.90
73360;DHT22;63092;43.582;19.528;2022-12-07T17:39:09;9.90;99.90
73360;DHT22;63092;43.582;19.528;2022-12-07T17:41:37;9.90;99.90
73360;DHT22;63092;43.582;19.528;2022-12-07T17:44:21;9.90;99.90
73360;DHT22;63092;43.582;19.528;2022-12-07T17:46:49;9.90;99.90
73360;DHT22;63092;43.582;19.528;2022-12-07T17:49:20;10.00;99.90
73360;DHT22;63092;43.582;19.528;2022-12-07T17:51:45;10.00;99.90
73360;DHT22;63092;43.582;19.528;2022-12-07T17:54:29;10.00;99.90
73360;DHT22;63092;43.582;19.528;2022-12-07T17:56:56;10.00;99.90
73360;DHT22;63092;43.582;19.528;2022-12-07T17:59:22;10.00;99.90
73360;DHT22;63092;43.582;19.528;2022-12-07T18:01:47;10.10;99.90